Time;durP1;ratioP1;P1;durP2;ratioP2;P2;SDS_P1;SDS_P2;PMS_P1;PMS_P2;Temp;Humidity;BMP_temperature;BMP_pressure;BME280_temperature;BME280_humidity;BME280_pressure;Samples;Min_cycle;Max_cycle;Signal;HPM_P1;HPM_P2
2023/05/24 00:01:36;;;;;;;2.15;1.70;;;24.30;52.20;;;;;;5018088;28;20466;-66
2023/05/24 00:04:02;;;;;;;2.30;1.65;;;24.30;52.20;;;;;;5023362;28;20129;-66
2023/05/24 00:06:28;;;;;;;2.10;1.45;;;24.30;52.20;;;;;;5019067;28;20025;-66
2023/05/24 00:08:54;;;;;;;2.22;1.42;;;24.30;52.20;;;;;;5021137;28;20038;-65
2023/05/24 00:11:21;;;;;;;2.47;1.60;;;24.30;52.20;;;;;;5019254;28;20029;-65
2023/05/24 00:13:47;;;;;;;2.30;1.60;;;24.30;52.20;;;;;;5020643;28;20018;-65
2023/05/24 00:16:13;;;;;;;2.33;1.50;;;24.30;52.20;;;;;;5019184;28;20057;-65
2023/05/24 00:18:45;;;;;;;1.90;1.40;;;24.30;52.30;;;;;;5018333;28;20079;-66
2023/05/24 00:21:12;;;;;;;2.33;1.55;;;24.30;52.20;;;;;;5018465;28;20056;-65
2023/05/24 00:23:38;;;;;;;2.25;1.58;;;24.30;52.20;;;;;;5019292;28;20050;-65
2023/05/24 00:26:04;;;;;;;2.00;1.40;;;24.30;52.30;;;;;;5017838;28;20232;-65
2023/05/24 00:28:30;;;;;;;2.85;1.67;;;24.30;52.30;;;;;;5022725;28;20454;-65
2023/05/24 00:30:59;;;;;;;2.10;1.40;;;24.30;52.30;;;;;;5022240;28;20038;-66
2023/05/24 00:33:26;;;;;;;2.13;1.60;;;24.30;52.30;;;;;;5021789;28;20512;-66
2023/05/24 00:35:55;;;;;;;2.05;1.42;;;24.30;52.30;;;;;;5021984;28;20034;-65
2023/05/24 00:38:25;;;;;;;2.45;1.50;;;24.30;52.30;;;;;;5016797;28;20025;-65
2023/05/24 00:40:51;;;;;;;1.98;1.33;;;24.30;52.30;;;;;;5017826;28;20393;-65
2023/05/24 00:43:18;;;;;;;2.40;1.60;;;24.20;52.20;;;;;;5020267;28;20018;-66
2023/05/24 00:45:43;;;;;;;2.00;1.50;;;24.20;52.30;;;;;;5017930;28;20041;-66
2023/05/24 00:48:10;;;;;;;2.65;1.58;;;24.20;52.30;;;;;;5019453;28;20641;-65
2023/05/24 00:50:38;;;;;;;2.88;1.50;;;24.20;52.30;;;;;;5018234;28;20509;-66
2023/05/24 00:53:05;;;;;;;1.85;1.30;;;24.20;52.30;;;;;;5019289;28;20583;-66
2023/05/24 00:55:32;;;;;;;2.80;1.60;;;24.20;52.30;;;;;;5020811;28;20055;-65
2023/05/24 00:57:58;;;;;;;2.65;1.58;;;24.20;52.80;;;;;;5017547;28;20065;-66
2023/05/24 01:00:26;;;;;;;2.20;1.30;;;24.20;52.30;;;;;;5016748;28;20083;-66
2023/05/24 01:02:53;;;;;;;2.20;1.42;;;24.20;52.30;;;;;;5017692;28;20597;-65
2023/05/24 01:05:20;;;;;;;2.05;1.40;;;24.20;52.30;;;;;;5017977;28;20369;-66
2023/05/24 01:07:52;;;;;;;2.40;1.60;;;24.20;52.30;;;;;;5017775;28;20032;-65
2023/05/24 01:10:36;;;;;;;2.13;1.30;;;24.20;52.30;;;;;;5019784;28;20497;-66
2023/05/24 01:13:19;;;;;;;2.28;1.35;;;24.20;52.30;;;;;;5019089;28;20132;-65
2023/05/24 01:15:56;;;;;;;2.03;1.33;;;24.20;52.30;;;;;;5017865;28;20026;-65
2023/05/24 01:18:30;;;;;;;2.30;1.42;;;24.20;52.30;;;;;;5021445;28;20025;-65
2023/05/24 01:21:11;;;;;;;1.85;1.40;;;24.20;52.30;;;;;;5019459;28;20030;-66
2023/05/24 01:23:45;;;;;;;2.08;1.40;;;24.20;52.30;;;;;;5017123;28;20029;-66
2023/05/24 01:26:19;;;;;;;2.10;1.40;;;24.20;52.30;;;;;;5015708;28;20030;-65
2023/05/24 01:28:47;;;;;;;2.10;1.45;;;24.20;52.30;;;;;;5017848;28;20022;-65
2023/05/24 01:31:16;;;;;;;1.80;1.40;;;24.20;52.30;;;;;;5019300;28;20045;-65
2023/05/24 01:33:42;;;;;;;2.42;1.40;;;24.20;52.30;;;;;;5017435;28;20030;-66
2023/05/24 01:36:08;;;;;;;1.70;1.20;;;24.20;52.30;;;;;;5018900;28;20030;-66
2023/05/24 01:38:33;;;;;;;2.10;1.40;;;24.10;52.30;;;;;;5018021;28;20025;-65
2023/05/24 01:41:29;;;;;;;2.20;1.38;;;24.10;52.30;;;;;;5017904;28;20032;-65
2023/05/24 01:44:04;;;;;;;2.50;1.60;;;24.10;52.30;;;;;;5018402;28;20029;-66
2023/05/24 01:46:36;;;;;;;2.25;1.33;;;24.10;52.30;;;;;;5023075;28;20029;-66
2023/05/24 01:49:24;;;;;;;2.05;1.20;;;24.10;52.30;;;;;;5018410;28;20079;-65
2023/05/24 01:52:09;;;;;;;1.83;1.30;;;24.10;52.30;;;;;;5021895;28;20037;-66
2023/05/24 01:54:38;;;;;;;2.10;1.40;;;24.10;52.30;;;;;;5023467;28;20049;-66
2023/05/24 01:57:09;;;;;;;2.57;1.40;;;24.20;52.40;;;;;;5021553;28;20503;-66
2023/05/24 01:59:37;;;;;;;1.90;1.38;;;24.10;52.30;;;;;;5021287;28;20026;-66
2023/05/24 02:02:02;;;;;;;1.73;1.30;;;24.10;52.30;;;;;;5023089;28;20022;-66
2023/05/24 02:04:28;;;;;;;1.92;1.40;;;24.10;52.30;;;;;;5021811;28;20030;-66
2023/05/24 02:06:54;;;;;;;2.00;1.33;;;24.10;52.30;;;;;;5022761;28;20104;-66
2023/05/24 02:09:20;;;;;;;2.00;1.20;;;24.10;52.30;;;;;;5022125;28;20430;-66
2023/05/24 02:11:45;;;;;;;1.77;1.25;;;24.10;52.30;;;;;;5017075;28;20029;-66
2023/05/24 02:14:12;;;;;;;2.03;1.20;;;24.10;52.30;;;;;;5021085;28;20026;-66
2023/05/24 02:16:41;;;;;;;1.80;1.40;;;24.10;52.30;;;;;;5023058;28;20104;-66
2023/05/24 02:19:08;;;;;;;1.25;1.10;;;24.10;52.30;;;;;;5021419;28;20104;-66
2023/05/24 02:21:33;;;;;;;2.17;1.40;;;24.10;52.30;;;;;;5018015;28;20530;-66
2023/05/24 02:23:59;;;;;;;2.05;1.38;;;24.10;52.30;;;;;;5035562;28;20121;-66
2023/05/24 02:26:24;;;;;;;2.03;1.20;;;24.10;52.30;;;;;;5023621;28;20036;-66
2023/05/24 02:28:50;;;;;;;2.53;1.40;;;24.10;52.30;;;;;;5020026;28;20464;-66
2023/05/24 02:31:16;;;;;;;1.92;1.33;;;24.10;52.30;;;;;;5023857;28;20038;-66
2023/05/24 02:33:42;;;;;;;1.83;1.17;;;24.10;52.30;;;;;;5022502;28;20045;-66
2023/05/24 02:36:08;;;;;;;2.05;1.30;;;24.10;52.30;;;;;;5021637;28;20029;-66
2023/05/24 02:38:33;;;;;;;2.42;1.40;;;24.10;52.30;;;;;;5018669;28;20030;-66
2023/05/24 02:40:59;;;;;;;2.55;1.40;;;24.10;52.30;;;;;;5019681;28;20052;-66
2023/05/24 02:43:25;;;;;;;1.63;1.20;;;24.10;52.30;;;;;;5019648;28;20112;-66
2023/05/24 02:45:50;;;;;;;1.95;1.27;;;24.10;52.30;;;;;;5019396;28;20064;-66
2023/05/24 02:48:16;;;;;;;1.70;1.23;;;24.10;52.30;;;;;;5021337;28;20013;-66
2023/05/24 02:50:41;;;;;;;1.52;1.20;;;24.10;52.30;;;;;;5020491;28;20095;-66
2023/05/24 02:53:07;;;;;;;1.92;1.20;;;24.10;52.30;;;;;;5021238;28;20030;-66
2023/05/24 02:55:33;;;;;;;2.17;1.30;;;24.00;52.30;;;;;;5020028;28;20121;-66
2023/05/24 02:57:58;;;;;;;2.17;1.30;;;24.10;52.30;;;;;;5020895;28;20053;-66
2023/05/24 03:00:24;;;;;;;2.00;1.30;;;24.10;52.30;;;;;;5021433;28;20029;-66
2023/05/24 03:02:51;;;;;;;1.75;1.20;;;24.00;52.30;;;;;;5021303;28;20402;-66
2023/05/24 03:05:17;;;;;;;1.48;1.17;;;24.10;52.30;;;;;;5020930;28;20022;-66
2023/05/24 03:07:42;;;;;;;2.20;1.20;;;24.00;52.30;;;;;;5022015;28;20596;-66
2023/05/24 03:10:08;;;;;;;1.65;1.25;;;24.00;52.30;;;;;;5021267;28;20033;-66
2023/05/24 03:12:34;;;;;;;2.17;1.20;;;24.00;52.30;;;;;;5019525;28;20026;-66
2023/05/24 03:14:59;;;;;;;2.13;1.30;;;24.00;52.30;;;;;;5027472;28;20112;-66
2023/05/24 03:17:25;;;;;;;1.50;1.17;;;24.00;52.30;;;;;;5020571;28;20032;-66
2023/05/24 03:19:51;;;;;;;1.40;1.10;;;24.00;52.30;;;;;;5023664;28;20079;-66
2023/05/24 03:22:17;;;;;;;2.05;1.20;;;24.00;52.30;;;;;;5023077;28;20025;-66
2023/05/24 03:24:45;;;;;;;1.90;1.20;;;24.00;52.30;;;;;;5022684;28;20505;-66
2023/05/24 03:27:10;;;;;;;1.33;1.05;;;24.00;52.30;;;;;;5021352;28;20076;-66
2023/05/24 03:29:36;;;;;;;1.80;1.20;;;24.00;52.30;;;;;;5019278;28;20364;-66
2023/05/24 03:32:02;;;;;;;1.42;1.08;;;24.00;52.30;;;;;;5018454;28;20044;-66
2023/05/24 03:34:27;;;;;;;1.58;1.10;;;24.00;52.30;;;;;;5022598;28;20477;-66
2023/05/24 03:36:53;;;;;;;1.70;1.20;;;24.00;52.30;;;;;;5020355;28;20105;-66
2023/05/24 03:39:18;;;;;;;1.85;1.20;;;24.00;52.30;;;;;;5020624;28;20018;-66
2023/05/24 03:41:44;;;;;;;1.67;1.20;;;24.00;52.30;;;;;;5020607;28;20621;-66
2023/05/24 03:44:09;;;;;;;1.52;1.13;;;24.00;52.30;;;;;;5018356;28;20030;-66
2023/05/24 03:46:35;;;;;;;1.88;1.10;;;24.00;52.30;;;;;;5019765;28;20500;-66
2023/05/24 03:49:01;;;;;;;1.33;1.08;;;24.00;52.30;;;;;;5019627;28;20022;-66
2023/05/24 03:51:28;;;;;;;1.85;1.17;;;24.00;52.30;;;;;;5018521;28;20112;-66
2023/05/24 03:53:57;;;;;;;1.58;1.05;;;24.00;52.30;;;;;;5020579;28;20022;-66
2023/05/24 03:56:23;;;;;;;1.50;1.10;;;24.00;52.80;;;;;;5019348;28;20024;-66
2023/05/24 03:58:51;;;;;;;1.50;1.10;;;23.90;52.20;;;;;;5019512;28;20072;-66
2023/05/24 04:01:16;;;;;;;1.60;0.95;;;23.90;52.20;;;;;;5019264;28;20347;-65
2023/05/24 04:03:44;;;;;;;2.50;1.20;;;24.00;52.30;;;;;;5020143;28;20030;-66
2023/05/24 04:06:11;;;;;;;1.52;1.10;;;24.00;52.30;;;;;;5020498;28;20456;-66
2023/05/24 04:08:36;;;;;;;1.20;0.90;;;23.90;52.20;;;;;;5017369;28;20036;-66
2023/05/24 04:11:02;;;;;;;1.45;1.08;;;23.90;52.20;;;;;;5022462;28;20440;-65
2023/05/24 04:13:28;;;;;;;1.63;1.10;;;23.90;52.20;;;;;;5019374;28;20180;-66
2023/05/24 04:15:53;;;;;;;2.15;1.00;;;23.90;52.20;;;;;;5020108;28;20026;-66
2023/05/24 04:18:19;;;;;;;1.40;1.00;;;23.90;52.20;;;;;;5019671;28;20426;-66
2023/05/24 04:20:44;;;;;;;1.45;1.08;;;23.90;52.20;;;;;;5018102;28;20497;-65
2023/05/24 04:23:10;;;;;;;1.60;1.10;;;23.90;52.30;;;;;;5021350;28;20335;-65
2023/05/24 04:25:36;;;;;;;1.70;1.13;;;23.90;52.20;;;;;;5020964;28;20029;-65
2023/05/24 04:28:02;;;;;;;2.17;1.30;;;23.90;52.20;;;;;;5021658;28;20036;-65
2023/05/24 04:30:29;;;;;;;2.10;1.20;;;23.90;52.20;;;;;;5018728;28;20393;-66
2023/05/24 04:32:55;;;;;;;2.13;1.30;;;23.90;52.20;;;;;;5018064;28;20401;-66
2023/05/24 04:35:22;;;;;;;1.92;1.10;;;23.90;52.20;;;;;;5020914;28;20140;-66
2023/05/24 04:37:49;;;;;;;1.83;1.17;;;23.90;52.20;;;;;;5018781;28;20711;-66
2023/05/24 04:40:15;;;;;;;1.70;1.30;;;23.90;52.20;;;;;;5026262;28;20148;-65
2023/05/24 04:42:41;;;;;;;1.90;1.20;;;23.90;52.10;;;;;;5017104;28;20030;-65
2023/05/24 04:45:07;;;;;;;1.65;1.13;;;23.90;52.10;;;;;;5020289;28;20144;-66
2023/05/24 04:47:32;;;;;;;1.98;1.33;;;23.90;52.10;;;;;;5019528;28;20346;-65
2023/05/24 04:49:58;;;;;;;1.85;1.40;;;23.90;52.10;;;;;;5022378;28;20030;-66
2023/05/24 04:52:24;;;;;;;1.73;1.20;;;23.90;52.10;;;;;;5020034;28;20064;-65
2023/05/24 04:54:50;;;;;;;2.08;1.25;;;23.90;52.10;;;;;;5021375;28;20465;-65
2023/05/24 04:57:16;;;;;;;1.90;1.10;;;23.90;52.10;;;;;;5020429;28;20144;-65
2023/05/24 04:59:42;;;;;;;1.58;1.00;;;23.80;52.00;;;;;;5014781;28;20057;-65
2023/05/24 05:02:08;;;;;;;1.67;1.20;;;23.80;52.00;;;;;;5018703;28;20030;-65
2023/05/24 05:04:33;;;;;;;1.30;1.00;;;23.80;52.00;;;;;;5018892;28;20032;-65
2023/05/24 05:06:59;;;;;;;1.65;1.30;;;23.80;52.10;;;;;;5015002;28;20467;-66
2023/05/24 05:09:24;;;;;;;2.03;1.30;;;23.80;52.00;;;;;;5018536;28;20121;-65
2023/05/24 05:11:50;;;;;;;1.50;1.00;;;23.80;52.10;;;;;;5020385;28;20032;-66
2023/05/24 05:14:16;;;;;;;2.25;1.27;;;23.90;52.10;;;;;;5016450;28;20030;-65
2023/05/24 05:16:42;;;;;;;2.22;1.20;;;23.80;52.00;;;;;;5015921;28;20474;-66
2023/05/24 05:19:07;;;;;;;2.08;1.20;;;23.80;52.00;;;;;;5020607;28;20347;-65
2023/05/24 05:21:33;;;;;;;2.50;1.40;;;23.80;52.00;;;;;;5022346;28;20022;-66
2023/05/24 05:24:00;;;;;;;1.80;1.20;;;23.80;52.00;;;;;;5023189;28;20030;-66
2023/05/24 05:26:26;;;;;;;2.10;1.40;;;23.80;52.00;;;;;;5023879;28;20454;-65
2023/05/24 05:28:53;;;;;;;2.20;1.30;;;23.80;52.00;;;;;;5025205;28;20037;-66
2023/05/24 05:31:19;;;;;;;1.60;1.05;;;23.80;52.00;;;;;;5023901;28;20117;-66
2023/05/24 05:33:45;;;;;;;1.70;1.30;;;23.80;52.00;;;;;;5020566;28;20124;-66
2023/05/24 05:36:10;;;;;;;1.65;1.15;;;23.80;52.00;;;;;;5023999;28;20026;-66
2023/05/24 05:38:36;;;;;;;1.92;1.30;;;23.80;52.00;;;;;;5023608;28;20543;-66
2023/05/24 05:41:01;;;;;;;1.90;1.20;;;23.80;52.00;;;;;;5023065;28;20167;-66
2023/05/24 05:43:28;;;;;;;1.80;1.20;;;23.80;52.00;;;;;;5022436;28;20033;-66
2023/05/24 05:45:54;;;;;;;1.52;1.00;;;23.80;52.00;;;;;;5023215;28;20432;-66
2023/05/24 05:48:20;;;;;;;1.58;1.10;;;23.80;52.00;;;;;;5025863;28;20389;-65
2023/05/24 05:50:46;;;;;;;1.60;1.15;;;23.80;52.00;;;;;;5022625;28;20033;-66
2023/05/24 05:53:11;;;;;;;2.00;1.10;;;23.70;51.90;;;;;;5022678;28;20486;-66
2023/05/24 05:55:37;;;;;;;1.80;1.20;;;23.70;51.90;;;;;;5022455;28;20038;-66
2023/05/24 05:58:02;;;;;;;2.00;1.20;;;23.80;52.00;;;;;;5024225;28;20440;-65
2023/05/24 06:00:28;;;;;;;1.23;1.00;;;23.80;52.00;;;;;;5021337;28;20129;-66
2023/05/24 06:02:54;;;;;;;2.15;1.20;;;23.70;52.00;;;;;;5023738;28;20426;-65
2023/05/24 06:05:19;;;;;;;1.77;1.13;;;23.80;52.00;;;;;;5022243;28;20504;-66
2023/05/24 06:07:46;;;;;;;1.90;1.27;;;23.80;52.10;;;;;;5022556;28;20482;-66
2023/05/24 06:10:12;;;;;;;1.48;1.10;;;23.70;52.00;;;;;;5022308;28;20037;-66
2023/05/24 06:12:39;;;;;;;1.70;1.10;;;23.70;52.00;;;;;;5021736;28;20030;-65
2023/05/24 06:15:08;;;;;;;2.08;1.40;;;23.70;51.90;;;;;;5020909;28;20030;-65
2023/05/24 06:17:35;;;;;;;2.53;1.10;;;23.70;52.00;;;;;;5021851;28;20026;-66
2023/05/24 06:20:14;;;;;;;1.90;1.20;;;23.70;52.00;;;;;;5023862;28;20049;-65
2023/05/24 06:22:41;;;;;;;2.73;1.10;;;23.70;52.00;;;;;;5021161;28;20112;-65
2023/05/24 06:25:07;;;;;;;1.42;0.90;;;23.70;52.00;;;;;;5022210;28;20257;-66
2023/05/24 06:27:33;;;;;;;2.13;1.30;;;23.70;51.90;;;;;;5022340;28;20033;-66
2023/05/24 06:29:58;;;;;;;2.00;1.10;;;23.70;51.90;;;;;;5019294;28;20452;-65
2023/05/24 06:32:24;;;;;;;1.50;1.00;;;23.70;52.00;;;;;;5021556;28;20040;-65
2023/05/24 06:34:50;;;;;;;1.73;1.13;;;23.70;52.00;;;;;;5024475;28;20065;-65
2023/05/24 06:37:15;;;;;;;1.40;1.02;;;23.70;52.00;;;;;;5022893;28;20025;-66
2023/05/24 06:39:41;;;;;;;2.13;1.27;;;23.70;52.00;;;;;;5021599;28;20520;-66
2023/05/24 06:42:07;;;;;;;1.38;1.00;;;23.70;52.00;;;;;;5022100;28;20531;-66
2023/05/24 06:44:33;;;;;;;1.52;1.10;;;23.70;52.00;;;;;;5020848;28;20037;-65
2023/05/24 06:47:03;;;;;;;1.42;1.10;;;23.70;52.00;;;;;;5019807;28;20044;-65
2023/05/24 06:49:28;;;;;;;1.50;1.00;;;23.70;52.00;;;;;;5021790;28;20581;-65
2023/05/24 06:51:54;;;;;;;1.45;1.10;;;23.70;52.00;;;;;;5019313;28;20108;-66
2023/05/24 06:54:20;;;;;;;1.42;1.02;;;23.70;52.00;;;;;;5021308;28;20115;-65
2023/05/24 06:56:46;;;;;;;1.48;1.10;;;23.70;52.00;;;;;;5022820;28;20025;-65
2023/05/24 06:59:11;;;;;;;1.75;1.10;;;23.70;52.00;;;;;;5019548;28;20478;-66
2023/05/24 07:01:38;;;;;;;1.50;1.10;;;23.70;52.00;;;;;;5022329;28;20331;-66
2023/05/24 07:04:08;;;;;;;2.10;1.10;;;23.70;52.00;;;;;;5023594;28;20064;-65
2023/05/24 07:06:34;;;;;;;1.98;1.20;;;23.70;52.00;;;;;;5020865;28;20112;-65
2023/05/24 07:09:03;;;;;;;1.50;1.00;;;23.70;52.00;;;;;;5019417;28;20535;-66
2023/05/24 07:11:29;;;;;;;1.60;1.10;;;23.70;52.00;;;;;;5020809;28;20036;-65
2023/05/24 07:13:55;;;;;;;1.55;1.15;;;23.70;52.00;;;;;;5019857;28;20088;-65
2023/05/24 07:16:21;;;;;;;1.77;1.20;;;23.70;52.00;;;;;;5023967;28;20025;-65
2023/05/24 07:18:46;;;;;;;1.52;1.02;;;23.70;52.00;;;;;;5021576;28;20687;-65
2023/05/24 07:21:12;;;;;;;1.75;1.10;;;23.60;52.00;;;;;;5026684;28;20026;-65
2023/05/24 07:23:37;;;;;;;1.85;1.10;;;23.70;52.00;;;;;;5022205;28;20025;-66
2023/05/24 07:26:04;;;;;;;1.00;0.80;;;23.70;52.00;;;;;;5022187;28;20499;-65
2023/05/24 07:28:30;;;;;;;1.63;1.10;;;23.60;52.00;;;;;;5020207;28;20440;-65
2023/05/24 07:30:55;;;;;;;1.80;1.10;;;23.60;52.00;;;;;;5019887;28;20143;-66
2023/05/24 07:33:21;;;;;;;1.73;1.10;;;23.70;52.00;;;;;;5018277;28;20022;-66
2023/05/24 07:35:50;;;;;;;1.70;1.10;;;23.60;52.00;;;;;;5019116;28;20113;-65
2023/05/24 07:38:17;;;;;;;1.60;1.00;;;23.60;52.00;;;;;;5022439;28;20167;-65
2023/05/24 07:40:42;;;;;;;1.67;1.13;;;23.70;52.00;;;;;;5034249;28;20034;-65
2023/05/24 07:43:08;;;;;;;1.35;0.90;;;23.60;52.00;;;;;;5018251;28;20611;-66
2023/05/24 07:45:34;;;;;;;1.83;1.20;;;23.60;52.00;;;;;;5020107;28;20026;-65
2023/05/24 07:48:00;;;;;;;2.20;1.17;;;23.60;52.00;;;;;;5020792;28;20455;-66
2023/05/24 07:50:26;;;;;;;1.60;1.20;;;23.70;52.00;;;;;;5019440;28;20516;-65
2023/05/24 07:52:53;;;;;;;1.77;1.10;;;23.70;52.00;;;;;;5020235;28;20029;-65
2023/05/24 07:55:19;;;;;;;2.25;1.00;;;23.60;51.90;;;;;;5020240;28;20052;-65
2023/05/24 07:57:45;;;;;;;1.52;1.00;;;23.60;51.90;;;;;;5020058;28;20494;-66
2023/05/24 08:00:13;;;;;;;1.55;1.02;;;23.60;51.90;;;;;;5019654;28;20194;-66
2023/05/24 08:02:40;;;;;;;1.92;1.17;;;23.60;51.90;;;;;;5021252;28;20022;-66
2023/05/24 08:05:08;;;;;;;1.50;1.10;;;23.60;52.00;;;;;;5020270;28;20458;-66
2023/05/24 08:07:34;;;;;;;1.63;1.08;;;23.60;51.90;;;;;;5019829;28;20121;-65
2023/05/24 08:09:59;;;;;;;1.38;1.00;;;23.60;51.90;;;;;;5019801;28;20128;-65
2023/05/24 08:12:25;;;;;;;1.63;1.10;;;23.60;51.90;;;;;;5020177;28;20033;-66
2023/05/24 08:14:51;;;;;;;1.90;1.17;;;23.60;51.90;;;;;;5032442;28;20079;-66
2023/05/24 08:17:16;;;;;;;1.42;0.98;;;23.60;51.90;;;;;;5020632;28;20105;-66
2023/05/24 08:19:42;;;;;;;1.70;1.10;;;23.60;51.90;;;;;;5021320;28;20092;-65
2023/05/24 08:22:08;;;;;;;1.70;1.02;;;23.60;51.90;;;;;;5017810;28;20036;-66
2023/05/24 08:24:33;;;;;;;1.65;1.00;;;23.60;52.00;;;;;;5018851;28;20420;-66
2023/05/24 08:26:59;;;;;;;1.70;1.15;;;23.60;51.90;;;;;;5026974;28;20064;-65
2023/05/24 08:29:24;;;;;;;1.77;1.10;;;23.60;51.90;;;;;;5019853;28;20397;-65
2023/05/24 08:31:50;;;;;;;1.65;1.05;;;23.60;51.90;;;;;;5018434;28;20038;-66
2023/05/24 08:34:16;;;;;;;1.33;0.90;;;23.60;51.90;;;;;;5019074;28;20414;-66
2023/05/24 08:36:42;;;;;;;1.90;1.15;;;23.60;51.90;;;;;;5022567;28;20049;-65
2023/05/24 08:39:09;;;;;;;1.58;1.10;;;23.60;51.90;;;;;;5021518;28;20096;-66
2023/05/24 08:41:36;;;;;;;1.67;1.00;;;23.60;51.90;;;;;;5022245;28;20030;-65
2023/05/24 08:44:05;;;;;;;1.50;1.05;;;23.60;51.90;;;;;;5020143;28;20136;-65
2023/05/24 08:46:35;;;;;;;2.08;1.35;;;23.60;51.90;;;;;;5017412;28;20030;-66
2023/05/24 08:49:06;;;;;;;1.90;1.20;;;23.60;51.90;;;;;;5018371;28;20033;-66
2023/05/24 08:51:32;;;;;;;2.13;1.20;;;23.60;51.90;;;;;;5019429;28;20097;-66
2023/05/24 08:54:00;;;;;;;1.20;0.95;;;23.60;51.90;;;;;;5016734;28;20497;-66
2023/05/24 08:56:26;;;;;;;1.50;1.02;;;23.60;51.90;;;;;;5018585;28;20446;-65
2023/05/24 08:58:55;;;;;;;1.80;1.05;;;23.60;51.90;;;;;;5018667;28;20043;-65
2023/05/24 09:01:23;;;;;;;1.42;0.95;;;23.60;51.90;;;;;;5018612;28;20405;-66
2023/05/24 09:03:50;;;;;;;1.65;0.93;;;23.60;51.90;;;;;;5018998;28;20394;-66
2023/05/24 09:06:17;;;;;;;1.58;1.10;;;23.60;51.90;;;;;;5020375;28;20026;-65
2023/05/24 09:08:49;;;;;;;1.40;0.98;;;23.60;51.90;;;;;;5017643;28;20026;-65
2023/05/24 09:11:15;;;;;;;1.48;1.10;;;23.60;51.90;;;;;;5019731;28;20196;-65
2023/05/24 09:13:43;;;;;;;2.00;1.10;;;23.60;51.90;;;;;;5019004;28;20402;-66
2023/05/24 09:16:09;;;;;;;1.48;0.95;;;23.60;51.90;;;;;;5016462;28;20105;-66
2023/05/24 09:18:35;;;;;;;2.25;1.10;;;23.50;51.90;;;;;;5017256;28;20037;-65
2023/05/24 09:21:00;;;;;;;2.30;1.20;;;23.60;51.90;;;;;;5018287;28;20025;-66
2023/05/24 09:23:26;;;;;;;1.50;1.00;;;23.60;52.40;;;;;;5018195;28;20041;-66
2023/05/24 09:25:52;;;;;;;1.85;1.20;;;23.60;51.90;;;;;;5017676;28;20022;-66
2023/05/24 09:28:19;;;;;;;1.23;1.00;;;23.60;52.00;;;;;;5018377;28;20469;-66
2023/05/24 09:30:57;;;;;;;1.67;1.20;;;23.60;51.90;;;;;;5017174;28;20449;-65
2023/05/24 09:33:27;;;;;;;1.67;1.05;;;23.50;51.90;;;;;;5020246;28;20385;-66
2023/05/24 09:35:56;;;;;;;;;;;23.50;51.90;;;;;;5018464;28;20022;-66
2023/05/24 09:38:22;;;;;;;1.98;1.20;;;23.50;51.90;;;;;;5018395;28;20341;-66
2023/05/24 09:41:06;;;;;;;1.88;1.10;;;23.50;51.90;;;;;;5019762;28;20030;-66
2023/05/24 09:43:37;;;;;;;1.85;1.23;;;23.50;51.90;;;;;;5020029;28;20560;-65
2023/05/24 09:46:04;;;;;;;1.67;1.20;;;23.50;51.90;;;;;;5018858;28;20051;-65
2023/05/24 09:48:30;;;;;;;1.45;1.10;;;23.50;51.90;;;;;;5017023;28;20096;-65
2023/05/24 09:51:08;;;;;;;1.70;1.00;;;23.50;51.90;;;;;;5017822;28;20025;-65
2023/05/24 09:53:35;;;;;;;1.90;1.33;;;23.50;51.90;;;;;;5019985;28;20022;-66
2023/05/24 09:56:04;;;;;;;1.50;1.17;;;23.50;51.90;;;;;;5017480;28;20496;-65
2023/05/24 09:58:33;;;;;;;1.58;1.10;;;23.50;51.90;;;;;;5022085;28;20054;-65
2023/05/24 10:01:06;;;;;;;1.40;1.10;;;23.50;51.90;;;;;;5018387;28;20386;-65
2023/05/24 10:03:36;;;;;;;1.27;0.93;;;23.50;51.90;;;;;;5019028;28;20434;-65
2023/05/24 10:06:03;;;;;;;;;;;23.50;51.90;;;;;;5023037;28;20474;-65
2023/05/24 10:08:30;;;;;;;2.10;1.10;;;23.50;51.90;;;;;;5024819;28;20222;-65
2023/05/24 10:10:56;;;;;;;2.38;1.10;;;23.50;51.90;;;;;;5020949;28;20018;-66
2023/05/24 10:13:22;;;;;;;1.95;1.10;;;23.50;52.00;;;;;;5025185;28;20446;-66
2023/05/24 10:15:48;;;;;;;1.67;1.10;;;23.50;51.90;;;;;;5036901;28;20084;-65
2023/05/24 10:18:13;;;;;;;1.60;1.00;;;23.50;51.90;;;;;;5020255;28;20046;-66
2023/05/24 10:20:42;;;;;;;1.55;1.00;;;23.50;52.00;;;;;;5022585;28;20021;-65
2023/05/24 10:23:09;;;;;;;1.70;1.00;;;23.50;52.00;;;;;;5018815;28;20545;-65
2023/05/24 10:25:40;;;;;;;1.25;0.95;;;23.50;51.90;;;;;;5022005;28;20040;-66
2023/05/24 10:28:11;;;;;;;1.63;1.10;;;23.50;51.90;;;;;;5022162;28;20169;-66
2023/05/24 10:30:43;;;;;;;1.70;1.10;;;23.50;52.50;;;;;;5021236;28;20017;-66
2023/05/24 10:33:12;;;;;;;1.77;1.10;;;23.50;52.00;;;;;;5021148;28;20029;-66
2023/05/24 10:35:39;;;;;;;1.40;1.00;;;23.50;51.90;;;;;;5024039;28;20505;-65
2023/05/24 10:38:06;;;;;;;1.83;1.10;;;23.50;51.90;;;;;;5021143;28;20033;-65
2023/05/24 10:40:32;;;;;;;1.50;1.00;;;23.50;52.00;;;;;;5022164;28;20018;-65
2023/05/24 10:42:58;;;;;;;1.50;0.95;;;23.50;52.00;;;;;;5021640;28;20036;-65
2023/05/24 10:45:24;;;;;;;1.60;1.08;;;23.50;51.90;;;;;;5022674;28;20390;-65
2023/05/24 10:47:50;;;;;;;1.42;1.00;;;23.50;51.90;;;;;;5020437;28;20044;-66
2023/05/24 10:50:17;;;;;;;1.52;1.02;;;23.50;51.90;;;;;;5021562;28;20486;-65
2023/05/24 10:52:43;;;;;;;1.50;1.00;;;23.50;51.90;;;;;;5023165;28;20026;-65
2023/05/24 10:55:10;;;;;;;1.55;1.00;;;23.50;51.90;;;;;;5022638;28;20056;-65
2023/05/24 10:57:37;;;;;;;2.05;1.02;;;23.50;51.90;;;;;;5022859;28;20036;-66
2023/05/24 11:00:27;;;;;;;2.13;1.30;;;23.50;51.90;;;;;;5020587;28;20021;-65
2023/05/24 11:03:00;;;;;;;1.38;1.00;;;23.50;51.90;;;;;;5018281;28;20530;-65
2023/05/24 11:05:48;;;;;;;1.88;1.00;;;23.50;51.90;;;;;;5022234;28;20381;-65
2023/05/24 11:08:28;;;;;;;1.92;1.10;;;23.50;51.90;;;;;;5020842;28;20025;-65
2023/05/24 11:11:08;;;;;;;1.52;1.08;;;23.50;51.90;;;;;;5019391;28;20485;-66
2023/05/24 11:13:36;;;;;;;1.90;1.20;;;23.50;51.90;;;;;;5024137;28;20163;-65
2023/05/24 11:16:02;;;;;;;1.95;1.05;;;23.50;51.90;;;;;;5020031;28;20100;-65
2023/05/24 11:18:28;;;;;;;1.40;1.00;;;23.50;51.90;;;;;;5021378;28;20108;-65
2023/05/24 11:20:55;;;;;;;1.85;1.10;;;23.50;52.40;;;;;;5024251;28;20021;-66
2023/05/24 11:23:21;;;;;;;1.83;1.08;;;23.50;51.90;;;;;;5021657;28;20381;-65
2023/05/24 11:25:48;;;;;;;1.73;1.00;;;23.50;51.90;;;;;;5021438;28;20036;-65
2023/05/24 11:28:13;;;;;;;1.52;1.10;;;23.50;51.80;;;;;;5020962;28;20029;-66
2023/05/24 11:30:39;;;;;;;2.00;1.17;;;23.50;51.80;;;;;;5017812;28;20028;-65
2023/05/24 11:33:12;;;;;;;1.67;1.10;;;23.50;51.80;;;;;;5020481;28;20610;-65
2023/05/24 11:35:38;;;;;;;1.40;1.00;;;23.50;51.80;;;;;;5019570;28;20041;-68
2023/05/24 11:38:10;;;;;;;1.60;1.10;;;23.50;51.80;;;;;;5019901;28;20026;-65
2023/05/24 11:40:37;;;;;;;1.50;0.90;;;23.50;51.80;;;;;;5021388;28;20029;-66
2023/05/24 11:43:05;;;;;;;1.48;1.10;;;23.50;51.80;;;;;;5020072;28;20331;-65
2023/05/24 11:45:31;;;;;;;1.20;1.00;;;23.50;51.80;;;;;;5020627;28;20109;-65
2023/05/24 11:47:56;;;;;;;1.27;0.95;;;23.50;51.80;;;;;;5017376;28;20120;-66
2023/05/24 11:50:25;;;;;;;1.60;1.05;;;23.50;51.80;;;;;;5019116;28;20066;-65
2023/05/24 11:52:51;;;;;;;1.70;1.10;;;23.50;51.80;;;;;;5034467;28;20033;-66
2023/05/24 11:55:23;;;;;;;1.23;0.90;;;23.50;51.80;;;;;;5021434;28;20044;-66
2023/05/24 11:57:56;;;;;;;1.38;0.90;;;23.50;51.80;;;;;;5019718;28;20017;-65
2023/05/24 12:00:26;;;;;;;2.00;1.17;;;23.50;51.80;;;;;;5020170;28;20484;-66
2023/05/24 12:02:51;;;;;;;;;;;23.50;51.80;;;;;;5019062;28;20505;-65
2023/05/24 12:05:21;;;;;;;1.80;1.00;;;23.50;51.80;;;;;;5019445;28;19909;-65
2023/05/24 12:07:47;;;;;;;;;;;23.50;51.80;;;;;;5019174;28;20139;-65
2023/05/24 12:10:16;;;;;;;1.35;1.00;;;23.50;51.80;;;;;;5018303;28;19917;-65
2023/05/24 12:12:45;;;;;;;1.40;0.90;;;23.40;51.70;;;;;;5020035;28;20040;-65
2023/05/24 12:15:11;;;;;;;;;;;23.50;51.80;;;;;;5020391;28;20883;-66
2023/05/24 12:17:37;;;;;;;1.35;0.93;;;23.50;51.80;;;;;;5018662;28;19924;-66
2023/05/24 12:20:05;;;;;;;1.33;0.90;;;23.40;51.70;;;;;;5019273;28;20123;-65
2023/05/24 12:22:30;;;;;;;1.73;1.00;;;23.50;51.80;;;;;;5019513;28;20405;-66
2023/05/24 12:24:57;;;;;;;1.50;1.00;;;23.50;51.80;;;;;;5018164;28;20033;-65
2023/05/24 12:27:33;;;;;;;1.25;0.98;;;23.50;51.80;;;;;;5017885;28;20022;-66
2023/05/24 12:30:06;;;;;;;1.35;0.90;;;23.50;51.80;;;;;;5019495;28;20473;-66
2023/05/24 12:32:31;;;;;;;1.48;0.93;;;23.50;51.80;;;;;;5018031;28;20049;-65
2023/05/24 12:34:57;;;;;;;1.30;0.90;;;23.40;51.70;;;;;;5020718;28;20374;-65
2023/05/24 12:37:23;;;;;;;2.00;1.10;;;23.40;51.80;;;;;;5019342;28;20025;-65
2023/05/24 12:39:49;;;;;;;1.88;1.00;;;23.50;51.80;;;;;;5018258;28;20028;-65
2023/05/24 12:42:14;;;;;;;1.50;0.90;;;23.50;51.80;;;;;;5020269;28;20026;-66
2023/05/24 12:44:40;;;;;;;1.23;0.90;;;23.40;51.70;;;;;;5018423;28;20474;-65
2023/05/24 12:47:07;;;;;;;1.15;0.93;;;23.40;51.70;;;;;;5018656;28;20558;-66
2023/05/24 12:49:32;;;;;;;1.23;0.90;;;23.50;51.80;;;;;;5018486;28;20095;-66